Time;durP1;ratioP1;P1;durP2;ratioP2;P2;SDS_P1;SDS_P2;PMS_P1;PMS_P2;Temp;Humidity;BMP_temperature;BMP_pressure;BME280_temperature;BME280_humidity;BME280_pressure;Samples;Min_cycle;Max_cycle;Signal;HPM_P1;HPM_P2
2023/01/12 00:01:54;;;;;;;4.28;1.20;;;;;;;6.85;99.85;100221.38;5002069;28;20097;-78
2023/01/12 00:04:20;;;;;;;7.55;1.42;;;;;;;6.85;99.52;100229.16;5002088;28;20046;-78
2023/01/12 00:06:49;;;;;;;8.00;1.60;;;;;;;6.89;99.72;100222.25;4985381;28;20037;-77
2023/01/12 00:09:15;;;;;;;4.70;1.48;;;;;;;6.92;99.25;100219.63;4968044;28;20089;-78
2023/01/12 00:11:42;;;;;;;8.32;2.60;;;;;;;6.91;99.08;100234.38;4987891;28;20465;-77
2023/01/12 00:14:09;;;;;;;3.47;0.98;;;;;;;6.95;98.77;100228.31;5002830;28;20075;-77
2023/01/12 00:16:37;;;;;;;4.50;1.20;;;;;;;6.98;98.62;100210.97;4991399;28;20041;-76
2023/01/12 00:19:12;;;;;;;3.63;1.10;;;;;;;7.05;98.06;100168.44;4989183;28;20384;-75
2023/01/12 00:21:52;;;;;;;4.78;1.40;;;;;;;7.10;97.82;100218.75;4983160;28;20128;-76
2023/01/12 00:24:19;;;;;;;3.67;1.08;;;;;;;7.05;98.48;100218.75;5011702;28;20061;-77
2023/01/12 00:26:47;;;;;;;4.93;1.15;;;;;;;7.04;98.99;100218.75;4991243;28;20050;-78
2023/01/12 00:29:16;;;;;;;5.28;1.25;;;;;;;7.02;99.91;100225.69;4996344;28;20041;-80
2023/01/12 00:31:43;;;;;;;3.30;1.55;;;;;;;7.02;99.82;100213.53;4998896;28;20116;-78
2023/01/12 00:34:09;;;;;;;4.15;2.03;;;;;;;7.01;99.88;100213.56;5010724;28;20041;-77
2023/01/12 00:36:36;;;;;;;3.25;2.22;;;;;;;7.03;99.78;100210.06;4998022;28;20049;-78
2023/01/12 00:39:03;;;;;;;6.72;2.25;;;;;;;7.04;100.00;100208.31;4995883;28;20045;-76
2023/01/12 00:47:00;;;;;;;2.92;1.40;;;;;;;7.10;99.72;100201.41;4988092;28;20064;-77
2023/01/12 00:49:27;;;;;;;10.52;1.52;;;;;;;7.18;98.76;100193.53;4986896;28;20133;-78
2023/01/12 00:51:54;;;;;;;4.28;1.23;;;;;;;7.16;99.29;100202.22;4972892;28;20065;-78
2023/01/12 00:54:20;;;;;;;5.18;2.30;;;;;;;7.13;99.49;100187.47;4997834;28;20616;-78
2023/01/12 00:56:46;;;;;;;5.32;1.10;;;;;;;7.27;98.24;100222.19;4990762;28;20443;-77
2023/01/12 00:59:13;;;;;;;4.35;0.90;;;;;;;7.34;98.18;100214.34;5004009;28;20034;-77
2023/01/12 01:01:39;;;;;;;9.10;1.50;;;;;;;7.29;98.32;100212.63;4997917;28;20497;-76
2023/01/12 01:04:06;;;;;;;3.40;1.50;;;;;;;7.28;98.57;100197.88;4993433;28;20029;-76
2023/01/12 01:06:38;;;;;;;3.35;0.93;;;;;;;7.27;98.49;100201.38;4985755;28;20113;-77
2023/01/12 01:09:05;;;;;;;6.00;1.40;;;;;;;7.22;98.33;100195.31;5003684;28;20030;-76
2023/01/12 01:11:32;;;;;;;4.65;1.08;;;;;;;7.15;98.65;100198.78;4992086;28;20061;-76
2023/01/12 01:13:59;;;;;;;3.85;1.60;;;;;;;7.10;98.53;100197.91;4977614;28;20054;-77
2023/01/12 01:16:25;;;;;;;7.03;1.23;;;;;;;7.19;98.06;100184.03;4973770;28;20049;-76
2023/01/12 01:18:52;;;;;;;2.45;1.30;;;;;;;7.21;97.58;100188.34;4990023;28;20688;-79
2023/01/12 01:21:19;;;;;;;6.07;1.33;;;;;;;7.18;97.18;100174.47;4986028;28;20513;-79
2023/01/12 01:23:45;;;;;;;8.82;1.27;;;;;;;7.18;98.05;100190.09;4984874;28;20046;-76
2023/01/12 01:26:17;;;;;;;6.50;1.38;;;;;;;7.31;96.37;100185.72;4990702;28;20046;-78
2023/01/12 01:28:45;;;;;;;4.93;1.35;;;;;;;7.34;95.61;100183.09;4982418;28;20039;-77
2023/01/12 01:31:19;;;;;;;2.88;1.15;;;;;;;7.36;95.23;100186.56;5005366;28;20084;-78
2023/01/12 01:33:46;;;;;;;1.88;1.60;;;;;;;7.41;95.03;100188.28;4975627;28;20304;-78
2023/01/12 01:36:13;;;;;;;4.43;1.52;;;;;;;7.56;93.72;100181.28;4972187;28;20110;-76
2023/01/12 01:38:40;;;;;;;5.88;1.17;;;;;;;7.62;92.49;100168.22;4990027;28;20034;-78
2023/01/12 01:41:07;;;;;;;3.90;1.05;;;;;;;7.65;92.88;100181.22;4993600;28;20092;-77
2023/01/12 01:43:58;;;;;;;4.93;1.08;;;;;;;7.69;92.44;100182.97;4990741;28;20036;-75
2023/01/12 01:46:44;;;;;;;3.95;0.65;;;;;;;7.82;91.05;100168.13;4983939;28;20038;-78
2023/01/12 01:49:27;;;;;;;4.40;0.90;;;;;;;7.79;91.42;100186.38;5004769;28;20126;-77
2023/01/12 01:52:00;;;;;;;2.53;0.70;;;;;;;7.77;91.64;100175.97;4982191;28;20062;-76
2023/01/12 01:54:31;;;;;;;5.88;1.05;;;;;;;7.95;90.43;100174.13;4975459;28;20042;-76
2023/01/12 01:56:58;;;;;;;2.50;0.60;;;;;;;7.92;90.76;100187.19;4993936;28;20057;-78
2023/01/12 01:59:29;;;;;;;1.63;0.60;;;;;;;7.86;91.14;100182.00;4990669;28;20627;-79
2023/01/12 02:01:56;;;;;;;2.05;0.40;;;;;;;7.84;91.47;100183.78;5005347;28;20046;-78
2023/01/12 02:04:24;;;;;;;2.92;0.60;;;;;;;7.84;92.24;100169.00;4995116;28;20461;-78
2023/01/12 02:06:54;;;;;;;3.13;0.65;;;;;;;7.84;92.84;100181.16;4991736;28;20657;-77
2023/01/12 02:09:27;;;;;;;1.25;0.47;;;;;;;7.84;93.25;100166.38;4990587;28;20041;-79
2023/01/12 02:18:21;;;;;;;2.30;0.50;;;;;;;7.75;95.93;100163.84;4991584;28;20040;-76
2023/01/12 02:21:07;;;;;;;1.23;0.50;;;;;;;7.69;97.28;100171.66;4911063;29;20104;-77
2023/01/12 02:23:59;;;;;;;2.88;0.50;;;;;;;7.58;98.88;100174.34;4909555;29;20538;-75
2023/01/12 02:27:17;;;;;;;4.90;0.82;;;;;;;7.51;100.00;100164.81;4984657;28;20050;-77
2023/01/12 02:30:23;;;;;;;5.38;0.95;;;;;;;7.53;100.00;100155.25;4986128;28;20464;-78
2023/01/12 02:33:27;;;;;;;3.70;1.33;;;;;;;7.49;100.00;100163.97;4987965;28;20101;-77
2023/01/12 02:36:10;;;;;;;8.20;1.92;;;;;;;7.51;100.00;100165.69;4986340;28;20057;-76
2023/01/12 02:38:55;;;;;;;6.10;0.93;;;;;;;7.49;100.00;100167.41;4981435;28;20053;-75
2023/01/12 02:44:35;;;;;;;2.22;0.90;;;;;;;7.49;100.00;100151.78;4988519;28;20034;-80
2023/01/12 02:47:07;;;;;;;2.97;1.20;;;;;;;7.50;100.00;100148.31;5002272;28;20039;-75
2023/01/12 02:49:41;;;;;;;2.90;1.50;;;;;;;7.53;100.00;100142.22;4977060;28;20038;-76
2023/01/12 02:52:14;;;;;;;4.28;1.42;;;;;;;7.57;100.00;100136.13;4991381;28;20125;-77
2023/01/12 02:54:46;;;;;;;4.13;1.02;;;;;;;7.58;100.00;100143.94;4986771;28;20712;-77
2023/01/12 02:57:15;;;;;;;7.28;1.50;;;;;;;7.62;100.00;100140.44;5005959;28;20120;-79
2023/01/12 02:59:44;;;;;;;4.15;1.13;;;;;;;7.69;99.98;100133.47;5004714;28;20046;-78
2023/01/12 03:02:22;;;;;;;13.18;2.72;;;;;;;7.74;99.42;100143.84;4999919;28;20408;-78
2023/01/12 03:04:48;;;;;;;3.22;1.83;;;;;;;7.75;98.97;100130.81;5017025;28;20046;-82
2023/01/12 03:07:15;;;;;;;5.15;1.15;;;;;;;7.75;99.18;100143.84;4993504;28;20597;-77
2023/01/12 03:09:49;;;;;;;11.07;2.55;;;;;;;7.72;99.66;100138.66;4989722;28;20042;-77
2023/01/12 03:12:30;;;;;;;2.45;0.70;;;;;;;7.69;100.00;100141.28;4989108;28;20433;-77
2023/01/12 03:15:01;;;;;;;1.65;0.77;;;;;;;7.62;100.00;100118.75;4990649;28;20459;-77
2023/01/12 03:18:36;;;;;;;2.13;0.63;;;;;;;7.59;100.00;100127.44;4991812;28;20161;-78
2023/01/12 03:22:06;;;;;;;3.85;0.98;;;;;;;7.48;100.00;100131.81;4948356;28;20105;-78
2023/01/12 03:24:40;;;;;;;2.15;0.70;;;;;;;7.42;100.00;100126.66;4954742;28;20057;-78
2023/01/12 03:27:17;;;;;;;4.03;0.60;;;;;;;7.41;100.00;100119.72;4986073;28;20046;-78
2023/01/12 03:29:50;;;;;;;4.22;0.40;;;;;;;7.45;100.00;100119.69;4984284;28;20393;-77
2023/01/12 03:32:26;;;;;;;1.77;0.90;;;;;;;7.49;100.00;100115.31;4975895;28;20035;-77
2023/01/12 03:35:32;;;;;;;2.17;0.88;;;;;;;7.49;100.00;100104.06;4986037;28;20138;-77
2023/01/12 03:38:19;;;;;;;7.35;3.13;;;;;;;7.50;100.00;100117.06;4971973;28;20394;-77
2023/01/12 03:40:58;;;;;;;1.65;0.77;;;;;;;7.56;100.00;100116.16;4981840;28;20070;-77
2023/01/12 03:43:35;;;;;;;2.05;1.10;;;;;;;7.57;100.00;100108.38;4985647;28;20046;-79
2023/01/12 03:46:38;;;;;;;2.05;0.60;;;;;;;7.55;100.00;100104.88;4996462;28;20114;-76
2023/01/12 03:49:34;;;;;;;3.20;1.00;;;;;;;7.55;100.00;100107.50;4976568;28;20078;-78
2023/01/12 03:52:22;;;;;;;;;;;;;;;;;;;;;
2023/01/12 03:54:59;;;;;;;2.22;1.10;;;;;;;7.53;100.00;100093.59;4980226;28;20061;-75
2023/01/12 03:57:37;;;;;;;3.38;1.15;;;;;;;7.58;100.00;100093.59;4984995;28;20042;-79
2023/01/12 04:00:08;;;;;;;1.15;0.75;;;;;;;7.56;100.00;100096.22;4985895;28;20118;-76
2023/01/12 04:02:42;;;;;;;2.78;0.98;;;;;;;7.56;100.00;100103.13;4965629;28;20049;-78
2023/01/12 04:05:12;;;;;;;3.90;1.23;;;;;;;7.56;100.00;100096.22;4992299;28;20038;-78
2023/01/12 04:07:39;;;;;;;0.73;0.52;;;;;;;7.56;100.00;100095.31;4988424;28;20362;-82
2023/01/12 04:10:09;;;;;;;4.07;1.38;;;;;;;7.49;100.00;100093.63;4979714;28;20109;-78
2023/01/12 04:12:36;;;;;;;1.67;0.80;;;;;;;7.44;100.00;100093.66;4984197;28;20038;-77
2023/01/12 04:15:04;;;;;;;3.95;1.02;;;;;;;7.37;100.00;100087.63;4972423;28;20104;-76
2023/01/12 04:17:32;;;;;;;3.88;0.90;;;;;;;7.31;100.00;100092.84;4986665;28;20046;-79
2023/01/12 04:20:01;;;;;;;1.48;0.65;;;;;;;7.29;100.00;100087.66;4990910;28;20093;-78
2023/01/12 04:22:42;;;;;;;3.40;0.98;;;;;;;7.21;100.00;100081.63;4983473;28;20990;-78
2023/01/12 04:25:15;;;;;;;2.15;0.70;;;;;;;7.19;100.00;100087.72;4973777;28;20367;-77
2023/01/12 04:28:00;;;;;;;1.20;0.77;;;;;;;7.16;100.00;100078.16;4984490;28;20065;-79
2023/01/12 04:30:33;;;;;;;1.35;0.47;;;;;;;7.13;100.00;100072.97;4985963;28;20547;-78
2023/01/12 04:33:37;;;;;;;4.10;0.60;;;;;;;7.11;100.00;100072.13;4971980;28;20041;-78
2023/01/12 04:36:11;;;;;;;3.72;0.95;;;;;;;7.10;100.00;100070.38;4982789;28;20154;-77
2023/01/12 04:38:46;;;;;;;3.05;0.82;;;;;;;7.10;100.00;100060.84;4986941;28;20045;-77
2023/01/12 04:41:12;;;;;;;1.00;0.50;;;;;;;7.09;100.00;100051.31;4977137;28;20042;-76
2023/01/12 04:43:39;;;;;;;0.55;0.55;;;;;;;7.10;100.00;100054.75;4986698;28;20716;-77
2023/01/12 04:46:09;;;;;;;2.83;0.85;;;;;;;7.09;100.00;100048.69;4983600;28;20048;-79
2023/01/12 04:48:36;;;;;;;3.92;0.95;;;;;;;7.11;100.00;100053.91;4986228;28;20062;-79
2023/01/12 04:51:03;;;;;;;2.38;0.60;;;;;;;7.12;100.00;100038.25;4982843;28;20058;-79
2023/01/12 04:53:32;;;;;;;2.95;0.57;;;;;;;7.10;100.00;100042.63;4983574;28;20062;-79
2023/01/12 04:56:05;;;;;;;2.22;0.77;;;;;;;7.13;100.00;100039.13;4998764;28;20039;-79
2023/01/12 04:58:32;;;;;;;2.20;0.73;;;;;;;7.15;100.00;100037.38;4967551;28;20511;-79
2023/01/12 05:00:59;;;;;;;4.13;1.73;;;;;;;7.14;100.00;100033.06;4978500;28;20183;-81
2023/01/12 05:03:37;;;;;;;0.95;0.60;;;;;;;7.14;100.00;100030.44;4976962;28;20546;-76
2023/01/12 05:06:09;;;;;;;4.18;0.90;;;;;;;7.15;100.00;100029.56;4962976;28;20055;-77
2023/01/12 05:11:45;;;;;;;2.28;0.60;;;;;;;7.10;100.00;100015.72;4968292;28;20037;-77
2023/01/12 05:14:11;;;;;;;1.33;0.85;;;;;;;7.07;100.00;100013.16;4989222;28;20057;-79
2023/01/12 05:16:40;;;;;;;5.90;1.55;;;;;;;7.05;100.00;100009.66;4988347;28;20043;-77
2023/01/12 05:19:06;;;;;;;1.90;0.57;;;;;;;7.04;100.00;100010.53;4981162;28;20038;-79
2023/01/12 05:22:13;;;;;;;;;;;;;;;;;;;;;
2023/01/12 05:28:37;;;;;;;3.97;0.77;;;;;;;7.03;100.00;99993.22;4972335;28;20130;-77
2023/01/12 05:31:25;;;;;;;0.77;0.50;;;;;;;7.03;100.00;99981.06;4962025;28;20105;-79
2023/01/12 05:34:18;;;;;;;3.70;1.67;;;;;;;7.03;100.00;99975.00;4967233;28;20061;-78
2023/01/12 05:37:12;;;;;;;2.25;0.57;;;;;;;7.04;100.00;99968.91;4968489;28;20147;-79
2023/01/12 05:40:08;;;;;;;3.67;0.53;;;;;;;7.05;100.00;99961.09;4974840;28;20042;-77
2023/01/12 05:46:07;;;;;;;2.20;0.45;;;;;;;7.15;100.00;99951.50;4977267;28;20045;-77
2023/01/12 05:48:42;;;;;;;1.55;0.65;;;;;;;7.15;100.00;99948.88;4987356;28;20047;-78
2023/01/12 05:51:15;;;;;;;3.53;0.50;;;;;;;7.18;100.00;99950.59;4978676;28;20054;-78
2023/01/12 05:53:51;;;;;;;4.85;0.60;;;;;;;7.17;100.00;99928.06;4998039;28;20129;-78
2023/01/12 05:56:25;;;;;;;2.72;0.82;;;;;;;7.18;100.00;99937.59;4982702;28;20111;-79
2023/01/12 05:58:55;;;;;;;2.05;0.60;;;;;;;7.19;100.00;99937.56;4985058;28;20041;-77
2023/01/12 06:01:23;;;;;;;1.85;0.50;;;;;;;7.18;100.00;99933.25;4982317;28;20045;-76
2023/01/12 06:03:57;;;;;;;3.00;1.88;;;;;;;7.18;100.00;99935.00;4997793;28;20045;-78
2023/01/12 06:06:25;;;;;;;1.27;0.60;;;;;;;7.19;100.00;99926.31;4985704;28;20042;-78
2023/01/12 06:08:53;;;;;;;1.75;0.50;;;;;;;7.21;100.00;99921.94;4988449;28;20782;-78
2023/01/12 06:14:05;;;;;;;;;;;;;;;7.24;100.00;99909.78;4979635;28;20145;-76
2023/01/12 06:16:31;;;;;;;1.23;0.43;;;;;;;7.24;100.00;99908.94;4962151;28;19926;-81
2023/01/12 06:18:58;;;;;;;0.98;0.50;;;;;;;7.26;100.00;99905.44;4988837;28;20038;-78
2023/01/12 06:21:26;;;;;;;2.08;0.50;;;;;;;7.27;100.00;99890.66;4981447;28;20739;-80
2023/01/12 06:23:52;;;;;;;1.63;0.65;;;;;;;7.29;100.00;99905.41;4986272;28;20048;-78
2023/01/12 06:26:19;;;;;;;2.47;0.80;;;;;;;7.31;100.00;99889.75;4992489;28;20050;-78
2023/01/12 06:28:45;;;;;;;1.77;0.60;;;;;;;7.31;100.00;99889.75;4979093;28;21410;-78
2023/01/12 06:31:13;;;;;;;2.60;0.47;;;;;;;7.32;100.00;99888.91;4983707;28;20052;-78
2023/01/12 06:33:40;;;;;;;0.82;0.45;;;;;;;7.37;100.00;99881.06;4988538;28;20041;-77
2023/01/12 06:36:07;;;;;;;4.78;1.05;;;;;;;7.42;100.00;99893.16;4987027;28;20132;-80
2023/01/12 06:38:35;;;;;;;1.95;0.15;;;;;;;7.43;100.00;99894.88;4994982;28;20065;-75
2023/01/12 06:42:27;;;;;;;1.27;0.22;;;;;;;7.42;100.00;99889.69;4996077;28;20128;-77
2023/01/12 06:44:00;;;;;;;0.90;0.43;;;;;;;7.43;100.00;99886.19;4993648;28;20045;-80
2023/01/12 06:46:27;;;;;;;1.90;0.30;;;;;;;7.42;100.00;99885.34;4986133;28;20088;-77
2023/01/12 06:48:58;;;;;;;2.00;0.20;;;;;;;7.42;100.00;99880.13;4969108;28;20884;-81
2023/01/12 06:51:25;;;;;;;0.50;0.20;;;;;;;7.44;100.00;99877.50;4985074;28;20041;-76
2023/01/12 06:53:52;;;;;;;1.52;0.32;;;;;;;7.46;100.00;99873.16;4984497;28;20045;-76
2023/01/12 06:56:19;;;;;;;0.73;0.38;;;;;;;7.44;100.00;99870.59;4980111;28;20061;-76
2023/01/12 06:58:46;;;;;;;2.13;0.30;;;;;;;7.45;100.00;99868.81;4980404;28;20551;-77
2023/01/12 07:01:13;;;;;;;0.50;0.25;;;;;;;7.43;100.00;99866.25;4981883;28;20114;-78
2023/01/12 07:03:39;;;;;;;0.50;0.40;;;;;;;7.44;100.00;99867.09;4982620;28;20045;-78
2023/01/12 07:06:06;;;;;;;2.03;0.20;;;;;;;7.46;100.00;99849.72;4996319;28;20029;-77
2023/01/12 07:08:33;;;;;;;0.82;0.57;;;;;;;7.45;100.00;99848.84;4989262;28;20045;-76
2023/01/12 07:11:06;;;;;;;0.85;0.20;;;;;;;7.44;100.00;99848.88;4984373;28;20141;-78
2023/01/12 07:13:34;;;;;;;2.28;1.45;;;;;;;7.40;100.00;99855.84;4973927;28;20699;-76
2023/01/12 07:16:01;;;;;;;1.35;0.40;;;;;;;7.40;100.00;99850.63;4988935;28;20116;-80
2023/01/12 07:18:29;;;;;;;0.50;0.20;;;;;;;7.39;100.00;99850.66;4991484;28;20116;-76
2023/01/12 07:20:55;;;;;;;2.33;0.20;;;;;;;7.39;100.00;99856.75;4988899;28;20054;-76
2023/01/12 07:23:22;;;;;;;1.10;0.30;;;;;;;7.40;100.00;99852.38;5003373;28;20400;-78
2023/01/12 07:26:19;;;;;;;1.73;0.40;;;;;;;7.41;100.00;99838.50;4976857;28;20476;-77
2023/01/12 07:28:46;;;;;;;0.95;0.32;;;;;;;7.40;100.00;99819.38;4978574;28;20133;-77
2023/01/12 07:31:12;;;;;;;0.75;0.22;;;;;;;7.42;100.00;99807.22;4989107;28;20042;-78
2023/01/12 07:33:39;;;;;;;1.02;0.20;;;;;;;7.40;100.00;99815.94;4995565;28;20030;-76
2023/01/12 07:36:06;;;;;;;0.82;0.20;;;;;;;7.36;100.00;99828.09;4995609;28;20044;-76
2023/01/12 07:38:32;;;;;;;0.55;0.10;;;;;;;7.37;100.00;99818.56;4994819;28;20077;-78
2023/01/12 07:41:00;;;;;;;0.70;0.20;;;;;;;7.29;100.00;99805.63;4981646;28;20401;-77
2023/01/12 07:43:27;;;;;;;1.20;0.25;;;;;;;7.22;100.00;99797.00;4974865;28;20044;-76
2023/01/12 07:46:00;;;;;;;1.27;0.40;;;;;;;7.16;100.00;99799.66;4993611;28;20120;-76
2023/01/12 07:48:26;;;;;;;0.85;0.30;;;;;;;7.05;100.00;99793.66;4986220;28;20039;-77
2023/01/12 07:50:54;;;;;;;0.95;0.20;;;;;;;6.94;100.00;99788.56;4990058;28;21487;-79
2023/01/12 07:53:20;;;;;;;0.55;0.10;;;;;;;6.87;100.00;99777.34;4988463;28;20042;-78
2023/01/12 07:55:47;;;;;;;4.50;0.30;;;;;;;6.88;100.00;99766.06;4982330;28;20173;-78
2023/01/12 07:58:13;;;;;;;0.40;0.15;;;;;;;6.85;100.00;99771.28;4993977;28;20032;-77
2023/01/12 08:00:40;;;;;;;0.47;0.35;;;;;;;6.85;100.00;99781.69;4988227;28;20137;-77
2023/01/12 08:03:13;;;;;;;0.90;0.30;;;;;;;6.88;100.00;99767.78;4977279;28;20045;-77
2023/01/12 08:05:41;;;;;;;1.33;0.20;;;;;;;6.87;100.00;99772.16;4988193;28;20075;-76
2023/01/12 08:08:08;;;;;;;0.25;0.20;;;;;;;6.88;100.00;99773.88;4974740;28;20073;-77
2023/01/12 08:10:34;;;;;;;0.40;0.10;;;;;;;6.89;100.00;99762.56;4987568;28;20038;-77
2023/01/12 08:13:01;;;;;;;1.95;0.45;;;;;;;6.93;100.00;99759.06;4989135;28;20045;-77
2023/01/12 08:15:32;;;;;;;0.30;0.30;;;;;;;6.99;100.00;99755.56;4987176;28;20109;-77
2023/01/12 08:18:06;;;;;;;1.40;0.28;;;;;;;6.96;100.00;99763.38;4994800;28;20036;-76
2023/01/12 08:20:35;;;;;;;0.45;0.10;;;;;;;6.95;100.00;99767.72;4984360;28;20500;-76
2023/01/12 08:23:28;;;;;;;1.05;0.55;;;;;;;6.98;100.00;99755.59;4995388;28;20045;-76
2023/01/12 08:26:00;;;;;;;0.20;0.20;;;;;;;7.02;100.00;99754.69;4989047;28;20049;-79
2023/01/12 08:28:37;;;;;;;0.68;0.30;;;;;;;7.02;100.00;99757.28;4992668;28;20045;-75
2023/01/12 08:31:08;;;;;;;0.52;0.20;;;;;;;7.03;100.00;99735.59;5000192;28;20039;-79
2023/01/12 08:33:36;;;;;;;1.45;0.20;;;;;;;7.06;100.00;99733.81;4991872;28;20038;-79
2023/01/12 08:36:11;;;;;;;0.75;0.20;;;;;;;7.11;100.00;99721.59;4975790;28;20034;-81
2023/01/12 08:38:38;;;;;;;0.15;0.15;;;;;;;7.13;100.00;99737.19;4991864;28;20104;-78
2023/01/12 08:44:04;;;;;;;0.13;0.13;;;;;;;7.20;100.00;99738.88;4966586;28;20532;-79
2023/01/12 08:46:51;;;;;;;0.10;0.10;;;;;;;7.23;100.00;99731.03;5001620;28;20535;-77
2023/01/12 08:49:22;;;;;;;0.50;0.15;;;;;;;7.26;100.00;99722.31;4983322;28;20057;-80
2023/01/12 08:51:49;;;;;;;0.00;0.00;;;;;;;7.32;100.00;99724.88;4986563;28;20042;-76
2023/01/12 08:54:17;;;;;;;0.10;0.10;;;;;;;7.35;100.00;99753.47;4991159;28;20475;-77
2023/01/12 08:56:44;;;;;;;0.90;0.10;;;;;;;7.37;100.00;99741.31;4976037;28;20038;-77
2023/01/12 08:59:11;;;;;;;0.30;0.10;;;;;;;7.41;100.00;99740.41;4970369;28;20045;-77
2023/01/12 09:01:38;;;;;;;0.75;0.15;;;;;;;7.38;100.00;99744.75;4982255;28;20038;-77
2023/01/12 09:04:05;;;;;;;1.17;0.28;;;;;;;7.42;100.00;99729.09;4990884;28;20033;-82
2023/01/12 09:06:37;;;;;;;0.40;0.10;;;;;;;7.53;100.00;99725.53;4988786;28;20046;-81
2023/01/12 09:09:09;;;;;;;0.65;0.10;;;;;;;7.54;100.00;99737.66;4967510;28;20077;-79
2023/01/12 09:11:38;;;;;;;0.30;0.30;;;;;;;7.58;100.00;99736.75;4989143;28;20125;-77
2023/01/12 09:14:05;;;;;;;1.35;0.00;;;;;;;7.56;100.00;99728.97;4975696;28;20062;-79
2023/01/12 09:16:32;;;;;;;0.10;0.10;;;;;;;7.55;100.00;99732.44;4986743;28;20054;-78
2023/01/12 09:19:56;;;;;;;0.68;0.20;;;;;;;7.57;100.00;99751.53;4976428;28;20043;-81
2023/01/12 09:23:03;;;;;;;0.30;0.10;;;;;;;7.59;100.00;99741.09;4956978;28;20453;-77
2023/01/12 09:32:09;;;;;;;0.10;0.10;;;;;;;7.71;100.00;99746.13;4958153;28;20386;-78
2023/01/12 09:34:47;;;;;;;0.65;0.10;;;;;;;7.76;100.00;99749.56;4979678;28;20052;-81
2023/01/12 09:41:01;;;;;;;0.57;0.17;;;;;;;7.88;100.00;99753.75;4973468;28;20051;-78
2023/01/12 09:47:00;;;;;;;0.77;0.10;;;;;;;7.87;100.00;99756.38;4986163;28;20042;-76
2023/01/12 09:49:34;;;;;;;0.73;0.73;;;;;;;7.89;100.00;99767.66;4976628;28;20081;-75
2023/01/12 09:52:17;;;;;;;0.28;0.17;;;;;;;7.93;100.00;99757.16;4979189;28;20440;-77
2023/01/12 09:54:49;;;;;;;3.40;1.75;;;;;;;7.95;100.00;99768.44;5002062;28;20069;-78
2023/01/12 09:57:55;;;;;;;0.10;0.10;;;;;;;7.93;100.00;99770.19;4990687;28;20152;-78
2023/01/12 10:00:22;;;;;;;1.02;0.20;;;;;;;7.93;100.00;99767.59;4970199;28;20042;-76
2023/01/12 10:02:58;;;;;;;0.17;0.10;;;;;;;7.88;100.00;99764.16;4981515;28;21652;-78
2023/01/12 10:05:46;;;;;;;0.03;0.00;;;;;;;7.82;100.00;99766.84;5001595;28;20045;-78
2023/01/12 10:08:22;;;;;;;0.20;0.20;;;;;;;7.84;100.00;99770.31;4994808;28;20031;-79
2023/01/12 10:11:24;;;;;;;0.28;0.20;;;;;;;7.84;100.00;99780.72;4984389;28;20485;-78
2023/01/12 10:14:24;;;;;;;0.30;0.13;;;;;;;7.81;100.00;99766.88;4992707;28;20060;-80
2023/01/12 10:17:36;;;;;;;0.15;0.15;;;;;;;7.76;100.00;99766.94;5012136;28;20041;-78
2023/01/12 10:20:08;;;;;;;0.10;0.10;;;;;;;7.73;100.00;99766.97;5001331;28;20613;-75
2023/01/12 10:23:06;;;;;;;2.05;1.40;;;;;;;7.70;100.00;99762.66;5003098;28;20044;-76
2023/01/12 10:25:43;;;;;;;0.10;0.00;;;;;;;7.75;100.00;99754.78;5007946;28;20046;-76
2023/01/12 10:28:36;;;;;;;0.32;0.10;;;;;;;7.78;100.00;99763.44;4985033;28;20030;-77
2023/01/12 10:31:04;;;;;;;0.32;0.15;;;;;;;7.78;100.00;99760.84;5001540;28;20049;-78
2023/01/12 10:33:33;;;;;;;0.10;0.10;;;;;;;7.82;100.00;99766.00;4984487;28;20042;-77
2023/01/12 10:36:07;;;;;;;0.28;0.25;;;;;;;7.85;100.00;99766.81;4997179;28;20053;-76
2023/01/12 10:38:38;;;;;;;0.70;0.10;;;;;;;7.92;100.00;99754.59;4989713;28;20042;-76
2023/01/12 10:41:10;;;;;;;0.20;0.20;;;;;;;8.01;100.00;99758.81;4997320;28;20034;-78
2023/01/12 10:43:40;;;;;;;1.15;0.20;;;;;;;8.06;100.00;99755.25;4998565;28;20040;-75
2023/01/12 10:46:20;;;;;;;0.15;0.10;;;;;;;8.16;100.00;99750.81;4995039;28;20168;-79
2023/01/12 10:48:53;;;;;;;0.20;0.20;;;;;;;8.25;100.00;99745.47;4984982;28;20054;-75
2023/01/12 10:51:31;;;;;;;0.20;0.20;;;;;;;8.34;100.00;99739.22;4985150;28;20034;-78
2023/01/12 10:54:09;;;;;;;0.25;0.13;;;;;;;8.52;100.00;99740.75;4991030;28;20041;-75
2023/01/12 10:56:42;;;;;;;0.52;0.40;;;;;;;8.65;100.00;99748.41;4990033;28;20645;-77
2023/01/12 10:59:12;;;;;;;0.13;0.13;;;;;;;8.69;100.00;99753.53;4988523;28;20357;-76
2023/01/12 11:02:07;;;;;;;0.30;0.30;;;;;;;8.80;100.00;99745.53;5001802;28;20652;-79
2023/01/12 11:04:48;;;;;;;0.20;0.20;;;;;;;8.98;100.00;99748.72;4998721;28;21319;-78
2023/01/12 11:07:27;;;;;;;0.20;0.20;;;;;;;9.06;100.00;99741.59;4986817;28;20042;-77
2023/01/12 11:09:56;;;;;;;2.25;0.10;;;;;;;9.05;100.00;99732.94;4969429;28;20363;-78
2023/01/12 11:12:34;;;;;;;0.10;0.10;;;;;;;9.11;100.00;99750.22;4957573;28;20065;-75
2023/01/12 11:15:12;;;;;;;0.35;0.00;;;;;;;9.12;100.00;99753.72;4986876;28;20043;-76
2023/01/12 11:17:38;;;;;;;0.20;0.20;;;;;;;9.15;100.00;99741.47;4988189;28;20055;-75
2023/01/12 11:20:36;;;;;;;0.38;0.17;;;;;;;9.15;100.00;99741.47;5011987;28;20506;-76
2023/01/12 11:23:21;;;;;;;0.30;0.10;;;;;;;9.23;100.00;99747.41;4981724;28;20065;-76
2023/01/12 11:25:51;;;;;;;0.20;0.10;;;;;;;9.23;100.00;99744.78;4991451;28;20097;-75
2023/01/12 11:28:41;;;;;;;0.20;0.20;;;;;;;9.24;100.00;99741.31;4987773;28;20179;-75
2023/01/12 11:31:32;;;;;;;0.50;0.50;;;;;;;9.25;100.00;99731.72;4999112;28;20033;-77
2023/01/12 11:34:04;;;;;;;0.30;0.20;;;;;;;9.28;100.00;99742.09;4989694;28;20099;-77
2023/01/12 11:36:39;;;;;;;0.13;0.13;;;;;;;9.25;100.00;99744.75;4986022;28;20114;-77
2023/01/12 11:39:20;;;;;;;0.15;0.15;;;;;;;9.33;100.00;99752.47;4967745;28;20065;-75
2023/01/12 11:45:00;;;;;;;1.13;0.20;;;;;;;9.32;100.00;99742.91;4989263;28;20135;-79
2023/01/12 11:47:52;;;;;;;0.75;0.43;;;;;;;9.36;100.00;99735.00;4983752;28;20052;-82
2023/01/12 11:50:30;;;;;;;0.30;0.20;;;;;;;9.38;100.00;99748.00;4988278;28;20046;-76
2023/01/12 11:52:57;;;;;;;1.85;0.20;;;;;;;9.47;100.00;99749.59;4968905;28;20037;-77
2023/01/12 11:56:04;;;;;;;0.68;0.35;;;;;;;9.57;100.00;99756.38;4982556;28;20187;-78
2023/01/12 11:59:12;;;;;;;0.85;0.28;;;;;;;9.60;100.00;99730.19;4993536;28;20124;-79
2023/01/12 12:02:31;;;;;;;0.70;0.20;;;;;;;9.64;100.00;99725.75;4999920;28;20065;-78
2023/01/12 12:05:14;;;;;;;1.70;0.65;;;;;;;9.64;100.00;99715.31;5003006;28;20030;-79
2023/01/12 12:08:26;;;;;;;0.35;0.35;;;;;;;9.64;100.00;99733.59;4986190;28;20125;-77
2023/01/12 12:11:19;;;;;;;1.17;0.63;;;;;;;9.72;100.00;99745.59;4994186;28;20041;-81
2023/01/12 12:14:14;;;;;;;0.73;0.35;;;;;;;9.72;100.00;99723.84;4973188;28;20047;-77
2023/01/12 12:17:07;;;;;;;0.38;0.32;;;;;;;9.81;100.00;99739.34;4949835;28;20050;-78
2023/01/12 12:20:00;;;;;;;3.65;0.40;;;;;;;9.83;100.00;99736.69;4980447;28;20129;-76
2023/01/12 12:22:46;;;;;;;0.43;0.32;;;;;;;9.86;100.00;99734.03;4979238;28;20039;-79
2023/01/12 12:25:25;;;;;;;1.58;0.68;;;;;;;9.89;100.00;99724.34;4982453;28;20099;-76
2023/01/12 12:28:23;;;;;;;0.13;0.10;;;;;;;9.93;100.00;99720.78;4979790;28;20485;-79
2023/01/12 12:31:27;;;;;;;0.10;0.10;;;;;;;9.97;100.00;99712.88;4976130;28;20047;-77
2023/01/12 12:34:44;;;;;;;0.75;0.20;;;;;;;10.01;100.00;99719.75;4981776;28;20140;-77
2023/01/12 12:37:54;;;;;;;0.30;0.30;;;;;;;10.03;100.00;99724.06;4980198;28;20867;-76
2023/01/12 12:47:25;;;;;;;0.17;0.17;;;;;;;9.94;100.00;99719.88;4978395;28;20774;-77
2023/01/12 12:49:56;;;;;;;1.65;0.20;;;;;;;9.93;100.00;99725.13;4914097;28;20702;-79
2023/01/12 12:52:24;;;;;;;0.22;0.22;;;;;;;9.91;100.00;99729.56;4996314;28;20109;-79
2023/01/12 12:54:54;;;;;;;0.57;0.57;;;;;;;9.91;100.00;99713.88;4982881;28;20635;-79
2023/01/12 12:57:20;;;;;;;0.90;0.30;;;;;;;9.91;100.00;99713.88;4967654;28;20042;-80
2023/01/12 12:59:58;;;;;;;1.30;0.45;;;;;;;9.94;100.00;99726.88;4993531;28;20046;-77
2023/01/12 13:02:55;;;;;;;0.47;0.38;;;;;;;9.97;100.00;99718.09;4985873;28;20051;-79
2023/01/12 13:06:20;;;;;;;0.60;0.52;;;;;;;9.96;100.00;99717.25;4987229;28;20044;-79
2023/01/12 13:08:50;;;;;;;1.65;0.45;;;;;;;9.97;100.00;99726.78;4987818;28;20097;-77
2023/01/12 13:11:18;;;;;;;0.32;0.30;;;;;;;9.94;100.00;99703.34;4990765;28;20030;-77